createdAt,value
2019-06-26T00:01:20.756Z,22.16
2019-06-26T00:03:52.877Z,22.17
2019-06-26T00:06:25.116Z,22.08
2019-06-26T00:08:57.455Z,22.00
2019-06-26T00:11:30.170Z,21.90
2019-06-26T00:14:02.269Z,21.91
2019-06-26T00:16:34.444Z,21.87
2019-06-26T00:19:06.819Z,21.84
2019-06-26T00:21:39.023Z,21.76
2019-06-26T00:24:11.286Z,21.72
2019-06-26T00:26:43.516Z,21.69
2019-06-26T00:29:17.818Z,21.68
2019-06-26T00:31:51.490Z,21.69
2019-06-26T00:34:23.490Z,21.69
2019-06-26T00:36:55.658Z,21.65
2019-06-26T00:39:27.647Z,21.72
2019-06-26T00:42:00.142Z,21.67
2019-06-26T00:44:32.727Z,21.60
2019-06-26T00:47:05.288Z,21.49
2019-06-26T00:49:37.892Z,21.50
2019-06-26T00:52:10.078Z,21.46
2019-06-26T00:54:42.324Z,21.37
2019-06-26T00:57:14.833Z,21.35
2019-06-26T00:59:47.342Z,21.30
2019-06-26T01:02:19.602Z,21.25
2019-06-26T01:04:56.035Z,21.29
2019-06-26T01:07:28.088Z,21.29
2019-06-26T01:10:00.316Z,21.33
2019-06-26T01:12:32.637Z,21.38
2019-06-26T01:15:06.405Z,21.41
2019-06-26T01:17:38.789Z,21.27
2019-06-26T01:20:11.501Z,21.25
2019-06-26T01:22:43.550Z,21.25
2019-06-26T01:25:15.953Z,21.21
2019-06-26T01:27:48.165Z,21.19
2019-06-26T01:30:20.386Z,21.20
2019-06-26T01:32:52.474Z,21.24
2019-06-26T01:35:24.701Z,21.25
2019-06-26T01:37:56.979Z,21.28
2019-06-26T01:40:29.148Z,21.34
2019-06-26T01:43:01.428Z,21.22
2019-06-26T01:45:33.664Z,21.17
2019-06-26T01:48:06.045Z,21.19
2019-06-26T01:50:39.363Z,21.20
2019-06-26T01:53:11.590Z,21.17
2019-06-26T01:55:43.949Z,21.19
2019-06-26T01:58:17.174Z,21.12
2019-06-26T02:00:49.322Z,21.17
2019-06-26T02:03:21.584Z,21.05
2019-06-26T02:05:53.821Z,20.99
2019-06-26T02:08:26.311Z,20.85
2019-06-26T02:10:58.631Z,20.85
2019-06-26T02:13:31.322Z,20.75
2019-06-26T02:16:03.400Z,20.75
2019-06-26T02:18:40.014Z,20.79
2019-06-26T02:21:12.138Z,20.96
2019-06-26T02:23:44.507Z,21.60
2019-06-26T02:26:16.856Z,22.69
2019-06-26T02:28:50.317Z,23.66
2019-06-26T02:31:22.559Z,23.97
2019-06-26T02:33:54.789Z,24.74
2019-06-26T02:36:27.027Z,23.44
2019-06-26T02:38:59.297Z,22.53
2019-06-26T02:41:31.648Z,21.60
2019-06-26T02:44:03.835Z,21.44
2019-06-26T02:46:36.015Z,21.22
2019-06-26T02:49:08.178Z,21.11
2019-06-26T02:51:40.521Z,21.02
2019-06-26T02:54:12.746Z,20.99
2019-06-26T02:56:45.159Z,20.93
2019-06-26T02:59:17.381Z,20.89
2019-06-26T03:01:49.628Z,20.95
2019-06-26T03:04:21.779Z,20.93
2019-06-26T03:06:54.165Z,20.81
2019-06-26T03:09:26.471Z,20.77
2019-06-26T03:11:59.006Z,20.71
2019-06-26T03:14:31.505Z,20.68
2019-06-26T03:17:03.789Z,20.50
2019-06-26T03:19:36.190Z,20.40
2019-06-26T03:22:09.476Z,20.51
2019-06-26T03:24:41.708Z,20.59
2019-06-26T03:27:13.965Z,20.62
2019-06-26T03:29:46.304Z,20.62
2019-06-26T03:32:18.624Z,20.57
2019-06-26T03:34:50.817Z,20.52
2019-06-26T03:37:22.978Z,20.69
2019-06-26T03:39:55.102Z,20.70
2019-06-26T03:42:27.209Z,20.69
2019-06-26T03:44:59.471Z,20.65
2019-06-26T03:47:31.652Z,20.74
2019-06-26T03:50:05.308Z,20.69
2019-06-26T03:52:37.579Z,20.76
2019-06-26T03:55:09.906Z,20.83
2019-06-26T03:57:42.019Z,20.80
2019-06-26T04:00:14.132Z,20.79
2019-06-26T04:02:47.485Z,20.86
2019-06-26T04:05:19.638Z,20.88
2019-06-26T04:07:51.842Z,20.89
2019-06-26T04:10:24.242Z,20.95
2019-06-26T04:12:56.468Z,21.02
2019-06-26T04:15:41.260Z,20.99
2019-06-26T04:18:04.047Z,21.00
2019-06-26T04:20:36.296Z,21.01
2019-06-26T04:23:08.738Z,21.07
2019-06-26T04:25:41.009Z,21.19
2019-06-26T04:28:13.290Z,21.21
2019-06-26T04:30:46.644Z,21.24
2019-06-26T04:33:18.776Z,21.28
2019-06-26T04:35:50.964Z,21.35
2019-06-26T04:38:23.284Z,21.41
2019-06-26T04:40:55.454Z,21.45
2019-06-26T04:43:27.679Z,21.51
2019-06-26T04:45:59.754Z,21.56
2019-06-26T04:48:31.918Z,21.60
2019-06-26T04:51:04.113Z,21.73
2019-06-26T04:53:36.179Z,21.84
2019-06-26T04:56:08.414Z,21.95
2019-06-26T04:58:40.561Z,21.97
2019-06-26T05:01:12.739Z,22.03
2019-06-26T05:03:45.349Z,22.00
2019-06-26T05:06:17.452Z,22.08
2019-06-26T05:08:49.579Z,22.02
2019-06-26T05:11:21.819Z,22.05
2019-06-26T05:13:53.905Z,22.13
2019-06-26T05:16:26.133Z,22.18
2019-06-26T05:18:58.386Z,22.23
2019-06-26T05:21:30.612Z,22.30
2019-06-26T05:24:02.826Z,22.27
2019-06-26T05:26:35.204Z,22.10
2019-06-26T05:29:07.546Z,22.23
2019-06-26T05:31:39.692Z,22.35
2019-06-26T05:34:11.906Z,22.42
2019-06-26T05:36:44.218Z,22.45
2019-06-26T05:39:16.396Z,22.53
2019-06-26T05:41:48.684Z,22.59
2019-06-26T05:44:20.920Z,22.51
2019-06-26T05:46:53.062Z,22.57
2019-06-26T05:49:25.231Z,22.62
2019-06-26T05:51:57.490Z,22.64
2019-06-26T05:54:29.680Z,22.82
2019-06-26T05:57:01.746Z,22.75
2019-06-26T05:59:34.835Z,22.86
2019-06-26T06:02:07.635Z,22.90
2019-06-26T06:04:39.697Z,22.93
2019-06-26T06:07:12.943Z,22.96
2019-06-26T06:09:45.048Z,22.89
2019-06-26T06:12:17.343Z,23.02
2019-06-26T06:14:49.593Z,23.18
2019-06-26T06:17:21.827Z,23.28
2019-06-26T06:19:54.083Z,23.29
2019-06-26T06:22:27.554Z,23.19
2019-06-26T06:25:00.783Z,23.19
2019-06-26T06:27:33.004Z,23.27
2019-06-26T06:30:09.151Z,23.40
2019-06-26T06:32:41.397Z,23.60
2019-06-26T06:35:15.004Z,23.78
2019-06-26T06:37:47.680Z,23.75
2019-06-26T06:40:20.270Z,23.72
2019-06-26T06:42:52.785Z,23.88
2019-06-26T06:45:25.362Z,23.97
2019-06-26T06:47:57.615Z,23.93
2019-06-26T06:50:30.009Z,24.05
2019-06-26T06:53:02.095Z,24.26
2019-06-26T06:55:34.218Z,24.34
2019-06-26T06:58:07.576Z,24.44
2019-06-26T07:00:39.936Z,24.75
2019-06-26T07:03:12.301Z,24.81
2019-06-26T07:05:44.425Z,24.93
2019-06-26T07:08:16.494Z,24.99
2019-06-26T07:10:49.403Z,25.13
2019-06-26T07:13:21.573Z,25.24
2019-06-26T07:15:53.711Z,25.27
2019-06-26T07:18:26.011Z,25.41
2019-06-26T07:21:02.671Z,25.48
2019-06-26T07:23:40.728Z,25.57
2019-06-26T07:26:13.478Z,25.67
2019-06-26T07:28:45.856Z,25.83
2019-06-26T07:31:18.099Z,25.83
2019-06-26T07:33:50.787Z,25.85
2019-06-26T07:36:22.919Z,25.88
2019-06-26T07:38:54.986Z,26.02
2019-06-26T07:41:27.379Z,26.10
2019-06-26T07:43:59.779Z,26.20
2019-06-26T07:46:31.980Z,26.24
2019-06-26T07:49:04.477Z,26.30
2019-06-26T07:51:38.630Z,25.99
2019-06-26T07:54:10.909Z,26.01
2019-06-26T07:56:44.092Z,26.13
2019-06-26T07:59:16.057Z,26.44
2019-06-26T08:01:48.110Z,26.36
2019-06-26T08:04:20.222Z,26.38
2019-06-26T08:06:52.341Z,25.97
2019-06-26T08:09:24.742Z,26.08
2019-06-26T08:11:56.911Z,26.06
2019-06-26T08:14:29.152Z,26.35
2019-06-26T08:17:08.667Z,26.58
2019-06-26T08:19:40.705Z,26.73
2019-06-26T08:22:12.870Z,26.87
2019-06-26T08:24:44.937Z,26.88
2019-06-26T08:27:17.132Z,26.81
2019-06-26T08:29:49.240Z,26.90
2019-06-26T08:32:21.341Z,26.76
2019-06-26T08:34:53.444Z,26.90
2019-06-26T08:37:25.787Z,27.07
2019-06-26T08:39:58.288Z,27.07
2019-06-26T08:42:30.863Z,27.07
2019-06-26T08:45:03.309Z,27.07
2019-06-26T08:47:35.776Z,27.22
2019-06-26T08:50:09.321Z,27.03
2019-06-26T08:52:41.772Z,27.07
2019-06-26T08:55:14.602Z,27.12
2019-06-26T08:57:47.143Z,26.90
2019-06-26T09:00:20.338Z,26.85
2019-06-26T09:02:56.566Z,27.06
2019-06-26T09:05:29.105Z,27.06
2019-06-26T09:08:01.600Z,27.22
2019-06-26T09:10:34.463Z,27.25
2019-06-26T09:13:07.023Z,27.17
2019-06-26T09:15:39.697Z,27.25
2019-06-26T09:18:12.155Z,27.25
2019-06-26T09:20:44.860Z,27.15
2019-06-26T09:23:17.431Z,27.15
2019-06-26T09:25:50.055Z,27.10
2019-06-26T09:28:22.602Z,27.22
2019-06-26T09:30:55.182Z,27.25
2019-06-26T09:33:32.135Z,27.35
2019-06-26T09:36:02.503Z,27.59
2019-06-26T09:38:34.949Z,27.54
2019-06-26T09:41:07.442Z,27.54
2019-06-26T09:43:39.991Z,27.42
2019-06-26T09:46:12.529Z,27.45
2019-06-26T09:48:52.643Z,27.45
2019-06-26T09:51:20.501Z,27.53
2019-06-26T09:53:53.113Z,27.67
2019-06-26T09:56:25.818Z,27.75
2019-06-26T09:58:58.697Z,27.78
2019-06-26T10:01:31.217Z,27.77
2019-06-26T10:04:03.705Z,27.77
2019-06-26T10:06:36.285Z,27.88
2019-06-26T10:09:09.368Z,27.88
2019-06-26T10:11:42.439Z,27.88
2019-06-26T10:14:14.959Z,27.91
2019-06-26T10:16:47.492Z,27.93
2019-06-26T10:19:19.986Z,27.98
2019-06-26T10:21:52.491Z,28.15
2019-06-26T10:24:24.998Z,27.95
2019-06-26T10:26:57.725Z,27.99
2019-06-26T10:29:30.197Z,28.19
2019-06-26T10:32:02.841Z,28.20
2019-06-26T10:34:35.485Z,28.36
2019-06-26T10:37:07.927Z,28.40
2019-06-26T10:39:40.420Z,28.23
2019-06-26T10:42:12.868Z,28.05
2019-06-26T10:44:45.351Z,28.19
2019-06-26T10:47:17.886Z,28.24
2019-06-26T10:49:50.415Z,28.04
2019-06-26T10:52:22.928Z,27.84
2019-06-26T10:54:55.361Z,28.02
2019-06-26T10:57:27.847Z,27.82
2019-06-26T11:00:00.325Z,27.82
2019-06-26T11:02:32.866Z,27.78
2019-06-26T11:05:07.867Z,28.04
2019-06-26T11:07:41.546Z,28.04
2019-06-26T11:10:15.736Z,28.26
2019-06-26T11:12:49.135Z,28.56
2019-06-26T11:15:21.857Z,28.52
2019-06-26T11:17:54.608Z,28.59
2019-06-26T11:20:27.077Z,28.78
2019-06-26T11:22:59.626Z,28.50
2019-06-26T11:25:32.166Z,28.67
2019-06-26T11:28:04.820Z,28.37
2019-06-26T11:30:37.274Z,28.26
2019-06-26T11:33:09.916Z,28.08
2019-06-26T11:35:42.710Z,28.12
2019-06-26T11:38:15.282Z,28.45
2019-06-26T11:40:47.803Z,28.68
2019-06-26T11:43:20.356Z,28.41
2019-06-26T11:45:52.879Z,28.59
2019-06-26T11:48:25.433Z,28.63
2019-06-26T11:50:58.357Z,28.65
2019-06-26T11:53:32.141Z,28.82
2019-06-26T11:56:05.041Z,29.00
2019-06-26T11:58:37.644Z,29.25
2019-06-26T12:01:10.227Z,29.38
2019-06-26T12:03:42.823Z,29.02
2019-06-26T12:06:31.728Z,28.77
2019-06-26T12:09:20.525Z,28.78
2019-06-26T12:11:53.063Z,28.87
2019-06-26T12:14:41.475Z,29.16
2019-06-26T12:17:14.192Z,29.64
2019-06-26T12:19:46.780Z,29.51
2019-06-26T12:22:19.246Z,28.86
2019-06-26T12:24:52.597Z,28.37
2019-06-26T12:27:41.504Z,28.65
2019-06-26T12:30:30.261Z,28.92
2019-06-26T12:33:18.688Z,29.12
2019-06-26T12:35:51.322Z,28.91
2019-06-26T12:38:23.891Z,28.89
2019-06-26T12:41:13.153Z,28.93
2019-06-26T12:43:45.652Z,28.86
2019-06-26T12:46:34.266Z,28.69
2019-06-26T12:49:06.896Z,28.64
2019-06-26T12:51:39.659Z,28.87
2019-06-26T12:54:27.916Z,28.99
2019-06-26T12:57:00.223Z,28.97
2019-06-26T12:59:32.708Z,28.99
2019-06-26T13:02:21.207Z,29.17
2019-06-26T13:04:59.384Z,29.31
2019-06-26T13:07:31.900Z,29.29
2019-06-26T13:10:07.622Z,29.21
2019-06-26T13:12:40.449Z,29.29
2019-06-26T13:15:13.170Z,29.45
2019-06-26T13:17:45.724Z,29.20
2019-06-26T13:20:18.869Z,29.22
2019-06-26T13:22:51.380Z,29.35
2019-06-26T13:25:23.795Z,29.39
2019-06-26T13:27:56.415Z,29.33
2019-06-26T13:30:37.803Z,29.26
2019-06-26T13:33:10.286Z,29.10
2019-06-26T13:35:42.621Z,29.03
2019-06-26T13:38:14.998Z,28.94
2019-06-26T13:40:47.267Z,29.21
2019-06-26T13:43:20.599Z,29.20
2019-06-26T13:45:52.853Z,29.18
2019-06-26T13:48:25.014Z,28.84
2019-06-26T13:51:08.664Z,28.78
2019-06-26T13:53:32.660Z,29.02
2019-06-26T13:56:05.023Z,29.39
2019-06-26T13:58:37.093Z,29.47
2019-06-26T14:01:09.299Z,29.39
2019-06-26T14:03:41.461Z,29.44
2019-06-26T14:06:13.746Z,29.63
2019-06-26T14:08:45.900Z,29.57
2019-06-26T14:11:18.205Z,29.51
2019-06-26T14:13:52.528Z,29.38
2019-06-26T14:16:24.589Z,29.51
2019-06-26T14:18:56.809Z,29.53
2019-06-26T14:21:28.940Z,29.68
2019-06-26T14:24:01.274Z,29.55
2019-06-26T14:26:33.560Z,29.40
2019-06-26T14:29:19.964Z,29.29
2019-06-26T14:31:39.716Z,29.36
2019-06-26T14:34:29.145Z,29.58
2019-06-26T14:37:01.047Z,29.85
2019-06-26T14:39:33.245Z,29.77
2019-06-26T14:42:05.355Z,30.19
2019-06-26T14:44:37.536Z,30.40
2019-06-26T14:47:09.911Z,30.90
2019-06-26T14:49:42.059Z,31.20
2019-06-26T14:52:14.274Z,31.03
2019-06-26T14:54:46.398Z,30.87
2019-06-26T14:57:18.667Z,31.80
2019-06-26T14:59:50.966Z,32.01
2019-06-26T15:02:23.408Z,32.11
2019-06-26T15:04:55.566Z,32.15
2019-06-26T15:07:27.752Z,31.82
2019-06-26T15:09:59.872Z,32.27
2019-06-26T15:12:32.021Z,32.63
2019-06-26T15:15:04.677Z,33.04
2019-06-26T15:17:46.241Z,33.51
2019-06-26T15:20:18.503Z,33.12
2019-06-26T15:22:50.838Z,32.98
2019-06-26T15:25:24.105Z,32.41
2019-06-26T15:27:56.078Z,32.98
2019-06-26T15:30:28.420Z,33.30
2019-06-26T15:33:00.681Z,33.12
2019-06-26T15:35:34.483Z,32.98
2019-06-26T15:38:06.752Z,32.97
2019-06-26T15:40:39.176Z,32.55
2019-06-26T15:43:11.357Z,31.99
2019-06-26T15:45:43.529Z,32.42
2019-06-26T15:48:16.621Z,32.74
2019-06-26T15:50:48.721Z,32.26
2019-06-26T15:53:20.792Z,31.69
2019-06-26T15:55:52.901Z,31.01
2019-06-26T15:58:25.054Z,29.85
2019-06-26T16:00:57.794Z,29.27
2019-06-26T16:03:29.873Z,29.16
2019-06-26T16:06:04.705Z,29.00
2019-06-26T16:08:37.815Z,29.01
2019-06-26T16:11:09.968Z,28.75
2019-06-26T16:13:42.333Z,28.54
2019-06-26T16:16:14.589Z,28.56
2019-06-26T16:18:48.403Z,28.46
2019-06-26T16:21:20.783Z,28.44
2019-06-26T16:23:53.044Z,28.38
2019-06-26T16:26:25.362Z,28.29
2019-06-26T16:28:57.692Z,28.17
2019-06-26T16:31:30.202Z,28.09
2019-06-26T16:34:02.333Z,28.07
2019-06-26T16:36:34.659Z,27.97
2019-06-26T16:39:08.308Z,27.94
2019-06-26T16:41:40.862Z,28.10
2019-06-26T16:44:13.165Z,28.06
2019-06-26T16:46:45.416Z,27.97
2019-06-26T16:49:17.619Z,27.89
2019-06-26T16:51:49.723Z,27.69
2019-06-26T16:54:22.151Z,27.58
2019-06-26T16:56:55.263Z,27.43
2019-06-26T16:59:27.573Z,27.19
2019-06-26T17:02:00.041Z,27.04
2019-06-26T17:04:32.220Z,27.04
2019-06-26T17:07:04.348Z,27.02
2019-06-26T17:09:36.500Z,27.01
2019-06-26T17:12:08.708Z,26.90
2019-06-26T17:14:40.761Z,26.89
2019-06-26T17:17:13.112Z,26.85
2019-06-26T17:19:45.294Z,26.79
2019-06-26T17:22:17.451Z,26.75
2019-06-26T17:24:49.691Z,26.67
2019-06-26T17:27:21.901Z,26.62
2019-06-26T17:29:54.039Z,26.53
2019-06-26T17:32:26.539Z,26.53
2019-06-26T17:34:59.752Z,26.47
2019-06-26T17:37:32.038Z,26.40
2019-06-26T17:40:05.100Z,26.35
2019-06-26T17:42:37.425Z,26.30
2019-06-26T17:45:10.101Z,26.25
2019-06-26T17:47:42.310Z,26.22
2019-06-26T17:50:14.731Z,26.19
2019-06-26T17:52:48.751Z,26.16
2019-06-26T17:55:20.956Z,26.14
2019-06-26T17:57:53.037Z,26.09
2019-06-26T18:00:28.361Z,26.00
2019-06-26T18:03:01.826Z,25.97
2019-06-26T18:05:34.907Z,25.93
2019-06-26T18:08:07.246Z,25.88
2019-06-26T18:10:42.498Z,25.82
2019-06-26T18:13:14.724Z,25.74
2019-06-26T18:15:46.920Z,25.64
2019-06-26T18:18:19.233Z,25.62
2019-06-26T18:20:51.443Z,25.60
2019-06-26T18:23:36.758Z,25.55
2019-06-26T18:26:11.899Z,25.58
2019-06-26T18:28:31.658Z,25.55
2019-06-26T18:31:04.015Z,25.52
2019-06-26T18:33:36.277Z,25.40
2019-06-26T18:36:08.628Z,25.38
2019-06-26T18:38:40.783Z,25.35
2019-06-26T18:41:13.007Z,25.34
2019-06-26T18:43:45.341Z,25.35
2019-06-26T18:46:17.818Z,25.33
2019-06-26T18:48:50.986Z,25.32
2019-06-26T18:51:23.938Z,25.31
2019-06-26T18:53:56.120Z,25.30
2019-06-26T18:56:28.582Z,25.33
2019-06-26T18:59:00.965Z,25.22
2019-06-26T19:01:33.431Z,25.13
2019-06-26T19:04:06.811Z,25.08
2019-06-26T19:06:39.142Z,25.07
2019-06-26T19:09:11.561Z,25.04
2019-06-26T19:11:43.860Z,25.02
2019-06-26T19:14:16.225Z,24.99
2019-06-26T19:16:55.398Z,24.94
2019-06-26T19:19:28.099Z,24.88
2019-06-26T19:22:00.412Z,24.90
2019-06-26T19:24:32.794Z,24.94
2019-06-26T19:27:07.526Z,24.80
2019-06-26T19:29:38.878Z,24.72
2019-06-26T19:32:11.088Z,24.64
2019-06-26T19:34:44.350Z,24.63
2019-06-26T19:37:17.945Z,24.53
2019-06-26T19:39:51.161Z,24.48
2019-06-26T19:42:24.379Z,24.46
2019-06-26T19:44:56.647Z,24.43
2019-06-26T19:47:28.867Z,24.42
2019-06-26T19:50:01.032Z,24.41
2019-06-26T19:52:33.294Z,24.43
2019-06-26T19:55:08.270Z,24.43
2019-06-26T19:57:40.616Z,24.45
2019-06-26T20:00:13.119Z,24.45
2019-06-26T20:02:45.353Z,24.46
2019-06-26T20:05:17.567Z,24.43
2019-06-26T20:07:51.754Z,24.45
2019-06-26T20:10:24.033Z,24.29
2019-06-26T20:12:56.121Z,24.25
2019-06-26T20:15:28.316Z,24.31
2019-06-26T20:18:03.954Z,24.34
2019-06-26T20:20:34.296Z,24.35
2019-06-26T20:23:06.580Z,24.31
2019-06-26T20:25:38.879Z,24.29
2019-06-26T20:28:10.961Z,24.16
2019-06-26T20:30:43.324Z,24.20
2019-06-26T20:33:15.552Z,24.15
2019-06-26T20:35:47.732Z,24.14
2019-06-26T20:38:19.816Z,24.13
2019-06-26T20:40:52.009Z,24.14
2019-06-26T20:43:24.341Z,24.06
2019-06-26T20:45:56.624Z,24.07
2019-06-26T20:48:28.826Z,24.19
2019-06-26T20:51:00.922Z,24.11
2019-06-26T20:53:34.266Z,24.03
2019-06-26T20:56:07.471Z,23.95
2019-06-26T20:58:39.657Z,24.03
2019-06-26T21:01:12.137Z,23.86
2019-06-26T21:03:44.237Z,23.80
2019-06-26T21:06:19.691Z,23.75
2019-06-26T21:08:52.006Z,23.80
2019-06-26T21:11:24.231Z,23.72
2019-06-26T21:13:56.732Z,23.72
2019-06-26T21:16:29.146Z,23.73
2019-06-26T21:19:01.346Z,23.61
2019-06-26T21:21:33.423Z,23.30
2019-06-26T21:24:05.511Z,23.36
2019-06-26T21:26:37.733Z,23.37
2019-06-26T21:29:09.989Z,23.38
2019-06-26T21:31:42.110Z,23.48
2019-06-26T21:34:15.353Z,23.50
2019-06-26T21:36:47.685Z,23.45
2019-06-26T21:39:20.094Z,23.43
2019-06-26T21:41:52.375Z,23.44
2019-06-26T21:44:24.873Z,23.47
2019-06-26T21:46:57.372Z,23.41
2019-06-26T21:49:29.482Z,23.46
2019-06-26T21:52:01.766Z,23.32
2019-06-26T21:54:33.821Z,23.30
2019-06-26T21:57:24.087Z,23.32
2019-06-26T22:00:15.552Z,23.32
2019-06-26T22:03:06.184Z,23.28
2019-06-26T22:05:40.298Z,23.22
2019-06-26T22:08:27.283Z,23.22
2019-06-26T22:11:01.126Z,23.22
2019-06-26T22:13:33.552Z,23.13
2019-06-26T22:16:06.838Z,23.09
2019-06-26T22:18:39.076Z,23.09
2019-06-26T22:21:11.342Z,23.01
2019-06-26T22:23:43.539Z,22.92
2019-06-26T22:26:15.650Z,22.90
2019-06-26T22:28:49.306Z,22.91
2019-06-26T22:31:21.626Z,22.91
2019-06-26T22:33:53.702Z,22.92
2019-06-26T22:36:25.827Z,22.94
2019-06-26T22:38:58.285Z,22.85
2019-06-26T22:41:30.558Z,22.70
2019-06-26T22:44:02.760Z,22.68
2019-06-26T22:46:35.011Z,22.68
2019-06-26T22:49:07.403Z,22.75
2019-06-26T22:51:39.878Z,22.70
2019-06-26T22:54:12.153Z,22.64
2019-06-26T22:56:44.578Z,22.62
2019-06-26T22:59:16.971Z,22.58
2019-06-26T23:01:49.071Z,22.45
2019-06-26T23:04:21.388Z,22.47
2019-06-26T23:06:55.176Z,22.55
2019-06-26T23:09:27.320Z,22.58
2019-06-26T23:12:00.596Z,22.57
2019-06-26T23:14:32.877Z,22.62
2019-06-26T23:17:04.978Z,22.62
2019-06-26T23:19:37.330Z,22.59
2019-06-26T23:22:09.390Z,22.58
2019-06-26T23:24:41.710Z,22.58
2019-06-26T23:27:13.847Z,22.57
2019-06-26T23:29:46.071Z,22.49
2019-06-26T23:32:18.363Z,22.50
2019-06-26T23:34:50.467Z,22.46
2019-06-26T23:37:22.606Z,22.33
2019-06-26T23:39:54.690Z,22.42
2019-06-26T23:42:26.767Z,22.35
2019-06-26T23:44:59.451Z,22.37
2019-06-26T23:47:31.408Z,22.33
2019-06-26T23:50:04.649Z,22.28
2019-06-26T23:52:36.719Z,22.24
2019-06-26T23:55:08.798Z,22.20
2019-06-26T23:57:57.924Z,22.13
